Time;durP1;ratioP1;P1;durP2;ratioP2;P2;SDS_P1;SDS_P2;PMS_P1;PMS_P2;Temp;Humidity;BMP_temperature;BMP_pressure;BME280_temperature;BME280_humidity;BME280_pressure;Samples;Min_cycle;Max_cycle;Signal;HPM_P1;HPM_P2
2023/03/15 00:00:11;;;;;;;2.40;2.03;;;8.40;62.80;;;;;;5050057;28;20605;-42
2023/03/15 00:02:37;;;;;;;2.87;2.17;;;8.50;62.80;;;;;;5046115;28;20203;-43
2023/03/15 00:05:04;;;;;;;3.57;1.87;;;8.50;62.40;;;;;;5043811;28;20430;-42
2023/03/15 00:07:30;;;;;;;4.23;2.40;;;8.50;62.30;;;;;;5051525;28;20443;-43
2023/03/15 00:09:55;;;;;;;8.60;2.10;;;8.70;62.20;;;;;;5041106;28;20435;-45
2023/03/15 00:12:24;;;;;;;5.20;2.13;;;8.70;62.20;;;;;;5048000;28;20447;-42
2023/03/15 00:14:50;;;;;;;1.90;1.77;;;8.70;62.10;;;;;;5048704;28;20258;-43
2023/03/15 00:17:16;;;;;;;3.60;2.50;;;8.80;62.00;;;;;;5044513;28;20443;-43
2023/03/15 00:19:42;;;;;;;3.73;2.50;;;8.90;61.70;;;;;;5047943;28;20435;-43
2023/03/15 00:22:07;;;;;;;2.43;2.20;;;8.90;61.30;;;;;;5044160;28;20509;-44
2023/03/15 00:24:33;;;;;;;2.30;2.10;;;9.00;61.20;;;;;;5034366;28;20201;-43
2023/03/15 00:26:59;;;;;;;2.60;2.00;;;9.00;60.60;;;;;;5045897;28;20418;-43
2023/03/15 00:29:24;;;;;;;2.73;2.33;;;8.80;61.10;;;;;;5049074;28;20219;-44
2023/03/15 00:31:50;;;;;;;3.20;2.90;;;8.70;61.70;;;;;;5035086;28;20203;-42
2023/03/15 00:34:17;;;;;;;4.83;2.93;;;8.70;61.90;;;;;;5040805;28;20200;-44
2023/03/15 00:36:44;;;;;;;2.90;2.50;;;8.60;62.30;;;;;;5042093;28;20454;-46
2023/03/15 00:39:09;;;;;;;2.47;2.27;;;8.70;62.40;;;;;;5039122;28;20484;-46
2023/03/15 00:41:35;;;;;;;5.40;3.23;;;8.90;62.10;;;;;;5034995;28;20447;-42
2023/03/15 00:44:03;;;;;;;3.47;3.10;;;8.60;61.30;;;;;;5048172;28;20447;-43
2023/03/15 00:46:28;;;;;;;3.43;2.80;;;8.70;61.80;;;;;;5044064;28;20852;-44
2023/03/15 00:48:54;;;;;;;4.27;3.87;;;8.90;62.20;;;;;;5043201;28;20428;-42
2023/03/15 00:51:21;;;;;;;4.50;3.43;;;9.00;61.80;;;;;;5043105;28;20302;-43
2023/03/15 00:53:49;;;;;;;4.13;3.73;;;9.10;61.40;;;;;;5041460;28;20185;-43
2023/03/15 00:56:18;;;;;;;4.43;4.03;;;9.10;61.20;;;;;;5040772;28;21053;-43
2023/03/15 00:58:44;;;;;;;4.80;3.80;;;9.10;60.40;;;;;;5029653;28;20506;-46
2023/03/15 01:01:15;;;;;;;4.80;3.97;;;9.30;60.80;;;;;;5042600;28;20431;-43
2023/03/15 01:03:41;;;;;;;4.60;3.57;;;9.60;60.10;;;;;;5035245;28;20718;-42
2023/03/15 01:06:10;;;;;;;4.27;3.70;;;9.80;60.70;;;;;;5040478;28;20442;-43
2023/03/15 01:08:35;;;;;;;6.70;3.83;;;10.10;58.80;;;;;;5041655;28;20523;-45
2023/03/15 01:11:03;;;;;;;3.80;3.50;;;10.20;57.80;;;;;;5035331;28;20818;-47
2023/03/15 01:13:29;;;;;;;4.57;3.53;;;10.20;57.30;;;;;;5034522;28;20204;-42
2023/03/15 01:15:54;;;;;;;6.80;3.80;;;10.30;57.10;;;;;;5034022;28;20458;-46
2023/03/15 01:18:20;;;;;;;4.10;3.33;;;10.20;56.70;;;;;;5036673;28;20228;-44
2023/03/15 01:20:45;;;;;;;4.27;3.87;;;10.10;57.00;;;;;;5041539;28;20185;-43
2023/03/15 01:23:11;;;;;;;6.17;4.27;;;10.30;57.90;;;;;;5046308;28;20251;-43
2023/03/15 01:25:37;;;;;;;4.63;3.40;;;10.50;57.60;;;;;;5050848;28;20696;-45
2023/03/15 01:28:02;;;;;;;4.60;3.63;;;10.50;56.40;;;;;;5036813;28;20188;-43
2023/03/15 01:30:28;;;;;;;7.00;3.63;;;10.70;56.50;;;;;;5044364;28;20200;-43
2023/03/15 01:32:53;;;;;;;4.97;3.83;;;10.70;55.70;;;;;;5035706;28;20203;-43
2023/03/15 01:35:19;;;;;;;6.10;3.50;;;10.70;55.90;;;;;;5030185;28;20250;-43
2023/03/15 01:37:47;;;;;;;4.00;3.70;;;10.70;56.10;;;;;;5036903;28;20232;-45
2023/03/15 01:40:13;;;;;;;5.90;4.03;;;10.90;56.40;;;;;;5037362;28;20207;-45
2023/03/15 01:43:01;;;;;;;4.60;3.50;;;11.10;56.20;;;;;;5042737;28;20443;-43
2023/03/15 01:46:00;;;;;;;3.93;3.40;;;11.20;54.60;;;;;;5039726;28;20243;-46
2023/03/15 01:48:53;;;;;;;5.10;3.73;;;11.10;54.30;;;;;;5047071;28;20446;-46
2023/03/15 01:51:25;;;;;;;4.30;3.30;;;11.20;54.20;;;;;;5012501;28;20451;-44
2023/03/15 01:53:56;;;;;;;6.00;3.77;;;11.30;54.50;;;;;;5039378;28;20783;-43
2023/03/15 01:56:23;;;;;;;4.07;3.00;;;11.50;54.50;;;;;;5046997;28;20569;-43
2023/03/15 01:58:51;;;;;;;4.27;3.87;;;11.60;53.90;;;;;;5041265;28;20491;-43
2023/03/15 02:01:19;;;;;;;4.07;3.57;;;11.60;53.30;;;;;;5042438;28;20957;-43
2023/03/15 02:03:48;;;;;;;6.00;4.23;;;11.60;53.20;;;;;;5031820;28;20451;-43
2023/03/15 02:06:17;;;;;;;9.60;3.80;;;11.60;52.70;;;;;;5034237;28;20447;-43
2023/03/15 02:08:56;;;;;;;4.60;3.00;;;11.70;52.90;;;;;;5041903;28;20809;-43
2023/03/15 02:11:24;;;;;;;4.27;3.80;;;11.80;53.60;;;;;;5037015;28;20436;-43
2023/03/15 02:13:51;;;;;;;4.33;3.07;;;12.00;53.20;;;;;;5040440;28;20440;-43
2023/03/15 02:16:17;;;;;;;4.33;3.50;;;12.30;53.00;;;;;;5042843;28;20444;-44
2023/03/15 02:18:43;;;;;;;4.50;3.50;;;12.50;53.00;;;;;;5038966;28;20490;-43
2023/03/15 02:21:26;;;;;;;5.53;3.03;;;12.60;52.00;;;;;;5039838;28;20452;-44
2023/03/15 02:24:24;;;;;;;3.33;3.00;;;12.70;51.90;;;;;;5031502;28;20619;-44
2023/03/15 02:26:53;;;;;;;3.77;2.97;;;12.80;51.70;;;;;;5040980;28;20466;-43
2023/03/15 02:29:21;;;;;;;7.63;3.17;;;12.90;51.20;;;;;;5042546;28;20494;-44
2023/03/15 02:31:47;;;;;;;4.20;3.03;;;12.90;50.30;;;;;;5039559;28;20814;-43
2023/03/15 02:34:12;;;;;;;9.30;3.47;;;12.90;50.30;;;;;;5031321;28;20455;-44
2023/03/15 02:36:38;;;;;;;5.00;2.63;;;13.00;50.30;;;;;;5039329;28;20204;-43
2023/03/15 02:39:15;;;;;;;4.00;2.90;;;13.20;50.50;;;;;;5044004;28;20244;-44
2023/03/15 02:41:45;;;;;;;4.90;3.20;;;13.40;50.00;;;;;;5047374;28;20214;-44
2023/03/15 02:44:16;;;;;;;2.90;1.93;;;13.40;48.40;;;;;;5043488;28;20852;-45
2023/03/15 02:46:46;;;;;;;4.77;2.50;;;13.50;48.30;;;;;;5048676;28;21173;-43
2023/03/15 02:49:15;;;;;;;6.40;3.23;;;13.60;49.10;;;;;;5055465;28;21012;-43
2023/03/15 02:51:41;;;;;;;6.07;3.23;;;13.70;47.90;;;;;;5048758;28;20508;-43
2023/03/15 02:54:07;;;;;;;3.83;3.27;;;13.80;48.40;;;;;;5047114;28;20435;-45
2023/03/15 02:56:33;;;;;;;4.40;2.67;;;13.80;48.00;;;;;;5049016;28;20848;-45
2023/03/15 02:58:59;;;;;;;4.40;3.10;;;13.80;47.50;;;;;;5043657;28;20256;-44
2023/03/15 03:01:25;;;;;;;5.23;2.83;;;13.80;47.50;;;;;;5054955;28;20446;-43
2023/03/15 03:03:50;;;;;;;5.73;2.90;;;13.90;47.40;;;;;;5054357;28;20490;-45
2023/03/15 03:06:17;;;;;;;4.97;2.93;;;13.90;47.70;;;;;;5054015;28;20242;-43
2023/03/15 03:08:45;;;;;;;5.13;3.17;;;14.00;47.60;;;;;;5053846;28;20246;-42
2023/03/15 03:11:15;;;;;;;3.13;2.57;;;14.00;47.10;;;;;;5054023;28;20435;-42
2023/03/15 03:13:41;;;;;;;3.60;2.93;;;14.00;47.70;;;;;;5053634;28;20419;-43
2023/03/15 03:16:07;;;;;;;3.87;3.37;;;14.00;46.90;;;;;;5053321;28;20430;-42
2023/03/15 03:18:34;;;;;;;6.53;3.63;;;14.10;47.10;;;;;;5053869;28;20486;-43
2023/03/15 03:21:02;;;;;;;4.47;2.80;;;14.10;47.20;;;;;;5055604;28;20798;-45
2023/03/15 03:23:29;;;;;;;4.17;2.50;;;14.10;47.10;;;;;;5059590;28;20525;-43
2023/03/15 03:25:56;;;;;;;4.33;2.13;;;14.20;46.60;;;;;;5053095;28;20418;-43
2023/03/15 03:28:27;;;;;;;2.40;2.03;;;14.20;46.30;;;;;;5053702;28;20458;-42
2023/03/15 03:30:54;;;;;;;2.43;2.23;;;14.20;46.20;;;;;;5053674;28;20926;-44
2023/03/15 03:33:20;;;;;;;5.83;2.20;;;14.20;45.50;;;;;;5044865;28;20761;-43
2023/03/15 03:35:46;;;;;;;2.67;2.43;;;14.20;45.50;;;;;;5053015;28;20450;-43
2023/03/15 03:38:12;;;;;;;3.50;2.00;;;14.10;45.30;;;;;;5048201;28;20256;-42
2023/03/15 03:40:38;;;;;;;2.57;1.90;;;14.00;45.10;;;;;;5042919;28;20486;-42
2023/03/15 03:43:04;;;;;;;4.40;2.27;;;14.00;45.20;;;;;;5036980;28;20446;-43
2023/03/15 03:45:30;;;;;;;4.30;2.60;;;14.00;45.10;;;;;;5036939;28;20466;-43
2023/03/15 03:47:55;;;;;;;2.43;2.13;;;14.00;45.20;;;;;;5039694;28;20189;-44
2023/03/15 03:50:21;;;;;;;6.47;2.63;;;14.00;45.00;;;;;;5038809;28;20189;-43
2023/03/15 03:52:46;;;;;;;2.40;2.00;;;14.00;44.80;;;;;;5051509;28;20193;-43
2023/03/15 03:55:15;;;;;;;3.50;1.80;;;14.00;44.70;;;;;;5046978;28;20251;-43
2023/03/15 03:57:41;;;;;;;5.30;2.13;;;14.00;44.70;;;;;;5038172;28;20681;-43
2023/03/15 04:00:13;;;;;;;4.63;1.93;;;14.00;44.60;;;;;;5039942;28;20526;-43
2023/03/15 04:02:41;;;;;;;3.03;2.10;;;14.00;44.70;;;;;;5045971;28;20452;-43
2023/03/15 04:05:08;;;;;;;2.43;2.30;;;13.90;44.10;;;;;;5044277;28;20837;-44
2023/03/15 04:07:33;;;;;;;4.40;2.00;;;13.80;45.00;;;;;;5043956;28;20447;-43
2023/03/15 04:10:01;;;;;;;3.80;2.57;;;13.90;45.80;;;;;;5042920;28;20455;-43
2023/03/15 04:12:27;;;;;;;4.83;2.13;;;14.00;46.40;;;;;;5039544;28;20531;-42
2023/03/15 04:14:52;;;;;;;6.77;2.20;;;14.00;45.80;;;;;;5039812;28;20451;-43
2023/03/15 04:17:18;;;;;;;4.60;2.40;;;14.10;45.40;;;;;;5035885;28;20255;-44
2023/03/15 04:19:46;;;;;;;4.53;2.10;;;14.10;44.90;;;;;;5046955;28;20240;-44
2023/03/15 04:22:14;;;;;;;2.30;2.10;;;14.00;44.10;;;;;;5044621;28;20201;-43
2023/03/15 04:24:40;;;;;;;3.00;1.90;;;14.00;43.80;;;;;;5044921;28;20476;-43
2023/03/15 04:27:06;;;;;;;1.83;1.67;;;14.00;45.20;;;;;;5037796;28;20853;-43
2023/03/15 04:29:32;;;;;;;3.20;2.27;;;14.00;45.00;;;;;;5043047;28;20451;-42
2023/03/15 04:32:01;;;;;;;4.23;2.03;;;14.00;44.90;;;;;;5043236;28;20458;-43
2023/03/15 04:34:30;;;;;;;4.23;2.30;;;14.00;44.30;;;;;;5037828;28;20196;-42
2023/03/15 04:36:56;;;;;;;6.33;2.40;;;14.00;44.10;;;;;;5034980;28;20455;-43
2023/03/15 04:39:22;;;;;;;5.33;2.33;;;14.00;43.90;;;;;;5032615;28;20972;-43
2023/03/15 04:41:47;;;;;;;3.07;2.30;;;14.00;43.60;;;;;;5045450;28;20197;-43
2023/03/15 04:44:16;;;;;;;7.20;2.43;;;14.00;43.30;;;;;;5034843;28;20447;-43
2023/03/15 04:46:42;;;;;;;3.43;2.40;;;13.90;43.20;;;;;;5042662;28;20189;-46
2023/03/15 04:49:08;;;;;;;4.40;2.83;;;13.70;42.80;;;;;;5042779;28;20446;-43
2023/03/15 04:51:34;;;;;;;3.57;2.57;;;13.40;42.60;;;;;;5045945;28;20446;-45
2023/03/15 04:54:00;;;;;;;5.70;2.23;;;13.00;43.00;;;;;;5038929;28;20205;-44
2023/03/15 04:56:27;;;;;;;3.13;2.40;;;12.50;43.60;;;;;;5040128;28;20215;-43
2023/03/15 04:58:52;;;;;;;5.73;2.20;;;12.10;44.40;;;;;;5042985;28;20518;-42
2023/03/15 05:01:18;;;;;;;3.67;2.40;;;11.70;45.20;;;;;;5050296;28;20863;-44
2023/03/15 05:03:44;;;;;;;6.83;2.40;;;11.40;45.90;;;;;;5050308;28;20203;-43
2023/03/15 05:06:09;;;;;;;3.70;2.67;;;11.00;46.40;;;;;;5040483;28;20279;-43
2023/03/15 05:08:36;;;;;;;3.50;2.47;;;10.70;47.10;;;;;;5043744;28;20228;-44
2023/03/15 05:11:03;;;;;;;3.53;2.50;;;10.50;47.60;;;;;;5044971;28;20196;-44
2023/03/15 05:13:28;;;;;;;3.90;2.40;;;10.30;47.80;;;;;;5039165;28;20450;-44
2023/03/15 05:15:54;;;;;;;3.50;2.70;;;10.20;48.20;;;;;;5045626;28;20431;-43
2023/03/15 05:18:20;;;;;;;5.53;3.07;;;10.10;48.60;;;;;;5044427;28;20236;-43
2023/03/15 05:20:46;;;;;;;3.90;2.40;;;9.90;49.70;;;;;;5049200;28;20189;-43
2023/03/15 05:23:12;;;;;;;5.80;2.40;;;9.70;50.00;;;;;;5046818;28;21184;-43
2023/03/15 05:25:38;;;;;;;3.50;2.10;;;9.60;50.40;;;;;;5041829;28;20208;-43
2023/03/15 05:28:04;;;;;;;6.30;2.10;;;9.50;51.10;;;;;;5043504;28;20442;-44
2023/03/15 05:30:30;;;;;;;6.10;2.60;;;9.50;50.60;;;;;;5042842;28;20431;-42
2023/03/15 05:32:56;;;;;;;7.30;2.60;;;9.40;50.70;;;;;;5036306;28;20451;-45
2023/03/15 05:35:25;;;;;;;6.37;3.07;;;9.30;51.00;;;;;;5038023;28;20522;-43
2023/03/15 05:37:51;;;;;;;3.60;2.13;;;9.20;51.10;;;;;;5037457;28;20535;-42
2023/03/15 05:40:17;;;;;;;5.73;2.80;;;9.10;51.30;;;;;;5046164;28;20496;-44
2023/03/15 05:42:43;;;;;;;5.10;2.67;;;9.00;51.50;;;;;;5048508;28;20443;-42
2023/03/15 05:45:09;;;;;;;4.40;2.60;;;8.90;51.80;;;;;;5037370;28;20447;-43
2023/03/15 05:47:34;;;;;;;4.97;3.13;;;8.80;51.90;;;;;;5043041;28;20258;-42
2023/03/15 05:50:00;;;;;;;5.57;3.47;;;8.80;52.00;;;;;;5051042;28;20439;-42
2023/03/15 05:52:26;;;;;;;7.70;3.40;;;8.80;52.00;;;;;;5043119;28;20246;-42
2023/03/15 05:54:51;;;;;;;6.83;2.97;;;8.80;52.00;;;;;;5054445;28;20231;-42
2023/03/15 05:57:17;;;;;;;5.77;3.33;;;8.80;52.30;;;;;;5050328;28;20793;-42
2023/03/15 05:59:42;;;;;;;5.87;2.87;;;8.90;53.80;;;;;;5053464;28;20206;-43
2023/03/15 06:02:08;;;;;;;5.30;2.87;;;9.20;55.30;;;;;;5041229;28;20220;-43
2023/03/15 06:04:35;;;;;;;3.20;2.93;;;9.50;54.80;;;;;;5047682;28;20281;-43
2023/03/15 06:07:00;;;;;;;7.50;2.87;;;9.70;54.00;;;;;;5046588;28;20200;-44
2023/03/15 06:09:26;;;;;;;7.83;2.80;;;9.90;53.80;;;;;;5039824;28;20436;-44
2023/03/15 06:11:52;;;;;;;7.00;3.17;;;10.10;51.00;;;;;;5034806;28;20196;-43
2023/03/15 06:14:18;;;;;;;4.97;2.90;;;10.30;50.70;;;;;;5034306;28;20205;-42
2023/03/15 06:16:43;;;;;;;7.50;2.80;;;10.30;49.90;;;;;;5035805;28;20442;-43
2023/03/15 06:19:09;;;;;;;4.30;2.23;;;10.40;50.10;;;;;;5034244;28;20236;-43
2023/03/15 06:21:34;;;;;;;6.53;2.93;;;10.40;50.20;;;;;;5037123;28;20556;-43
2023/03/15 06:24:00;;;;;;;6.33;2.90;;;10.60;49.90;;;;;;5044161;28;20670;-43
2023/03/15 06:26:25;;;;;;;32.00;3.47;;;10.70;49.50;;;;;;5031998;28;20255;-43
2023/03/15 06:28:51;;;;;;;4.80;3.70;;;10.80;49.00;;;;;;5047472;28;20192;-42
2023/03/15 06:31:17;;;;;;;6.07;2.73;;;11.00;49.00;;;;;;5035182;28;20199;-42
2023/03/15 06:33:42;;;;;;;4.23;2.33;;;11.10;48.70;;;;;;5042943;28;20197;-43
2023/03/15 06:36:08;;;;;;;4.17;2.70;;;11.30;48.20;;;;;;5042903;28;20326;-43
2023/03/15 06:38:34;;;;;;;7.53;2.70;;;11.40;47.80;;;;;;5036401;28;20220;-42
2023/03/15 06:41:00;;;;;;;8.27;2.70;;;11.60;47.70;;;;;;5037624;28;20443;-45
2023/03/15 06:43:26;;;;;;;5.80;2.87;;;11.80;47.50;;;;;;5049484;28;20455;-43
2023/03/15 06:45:54;;;;;;;6.03;2.57;;;11.90;47.10;;;;;;5034114;28;21066;-43
2023/03/15 06:48:20;;;;;;;3.50;3.10;;;12.10;46.30;;;;;;5036188;28;21513;-42
2023/03/15 06:50:45;;;;;;;7.80;3.33;;;12.20;46.00;;;;;;5034999;28;20440;-44
2023/03/15 06:53:12;;;;;;;5.77;2.80;;;12.30;45.90;;;;;;5037465;28;20207;-42
2023/03/15 06:55:37;;;;;;;5.00;2.67;;;12.20;44.80;;;;;;5042935;28;20793;-45
2023/03/15 06:58:03;;;;;;;6.30;2.97;;;11.90;45.50;;;;;;5038635;28;20490;-45
2023/03/15 07:00:28;;;;;;;8.00;3.90;;;11.70;45.50;;;;;;5044864;28;20244;-42
2023/03/15 07:02:54;;;;;;;7.30;2.87;;;11.50;44.90;;;;;;5033975;28;20197;-42
2023/03/15 07:05:19;;;;;;;5.73;3.07;;;11.20;44.20;;;;;;5032758;28;20203;-42
2023/03/15 07:07:45;;;;;;;8.30;3.80;;;11.30;45.20;;;;;;5045741;28;20193;-43
2023/03/15 07:10:11;;;;;;;4.97;2.57;;;11.50;45.70;;;;;;5043856;28;20541;-44
2023/03/15 07:12:37;;;;;;;4.90;2.73;;;11.70;45.60;;;;;;5039936;28;20567;-43
2023/03/15 07:15:03;;;;;;;4.87;2.77;;;11.90;45.30;;;;;;5036816;28;20201;-42
2023/03/15 07:17:28;;;;;;;7.90;3.10;;;11.70;44.50;;;;;;5045283;28;20236;-42
2023/03/15 07:19:54;;;;;;;5.97;2.70;;;11.90;45.30;;;;;;5050453;28;20495;-45
2023/03/15 07:22:21;;;;;;;5.53;3.03;;;12.10;45.90;;;;;;5051151;28;20188;-42
2023/03/15 07:24:47;;;;;;;8.97;3.20;;;12.10;45.10;;;;;;5053212;28;20203;-45
2023/03/15 07:27:13;;;;;;;5.87;2.70;;;12.00;44.60;;;;;;5053304;28;20427;-42
2023/03/15 07:29:38;;;;;;;5.63;2.60;;;12.20;44.80;;;;;;5053328;28;20202;-43
2023/03/15 07:32:04;;;;;;;6.70;2.77;;;12.40;44.40;;;;;;5052984;28;20415;-42
2023/03/15 07:34:30;;;;;;;5.20;2.40;;;12.60;44.10;;;;;;5052561;28;20192;-43
2023/03/15 07:36:55;;;;;;;4.20;2.20;;;12.60;42.80;;;;;;5053036;28;20647;-46
2023/03/15 07:39:22;;;;;;;5.70;2.40;;;12.60;43.20;;;;;;5053875;28;20224;-42
2023/03/15 07:41:48;;;;;;;5.83;2.87;;;12.50;42.80;;;;;;5053629;28;20201;-44
2023/03/15 07:44:13;;;;;;;5.30;2.47;;;12.50;42.80;;;;;;5053615;28;20786;-43
2023/03/15 07:46:39;;;;;;;3.60;2.60;;;12.40;43.40;;;;;;5053514;28;20427;-44
2023/03/15 07:49:05;;;;;;;3.33;2.07;;;12.40;43.40;;;;;;5053777;28;20223;-43
2023/03/15 07:51:31;;;;;;;7.93;2.63;;;12.40;43.00;;;;;;5053578;28;20255;-43
2023/03/15 07:53:56;;;;;;;6.73;2.77;;;12.40;43.00;;;;;;5053218;28;20743;-44
2023/03/15 07:56:22;;;;;;;6.93;2.53;;;11.80;42.90;;;;;;5053252;28;20207;-42
2023/03/15 07:58:47;;;;;;;4.53;2.10;;;11.40;43.30;;;;;;5053449;28;20598;-43
2023/03/15 08:01:13;;;;;;;7.60;2.60;;;11.20;44.20;;;;;;5052396;28;20234;-43
2023/03/15 08:03:39;;;;;;;5.50;1.67;;;11.20;44.10;;;;;;5052170;28;20672;-42
2023/03/15 08:06:04;;;;;;;10.30;2.53;;;11.00;44.10;;;;;;5053103;28;20275;-42
2023/03/15 08:08:30;;;;;;;5.20;2.30;;;11.00;44.70;;;;;;5053116;28;20188;-44
2023/03/15 08:10:55;;;;;;;2.10;1.87;;;11.10;44.50;;;;;;5053206;28;20212;-44
2023/03/15 08:13:21;;;;;;;8.67;2.17;;;10.80;44.10;;;;;;5052693;28;20279;-42
2023/03/15 08:15:47;;;;;;;8.20;2.33;;;10.50;44.20;;;;;;5053002;28;20252;-44
2023/03/15 08:18:13;;;;;;;6.83;2.07;;;10.50;44.90;;;;;;5052951;28;20255;-43
2023/03/15 08:20:39;;;;;;;4.53;1.87;;;10.50;45.30;;;;;;5053033;28;20192;-42
2023/03/15 08:23:05;;;;;;;6.93;2.00;;;10.60;45.10;;;;;;5052533;28;20416;-42
2023/03/15 08:25:30;;;;;;;2.77;1.97;;;10.80;45.60;;;;;;5052928;28;20201;-43
2023/03/15 08:27:56;;;;;;;7.80;2.10;;;10.80;45.10;;;;;;5052263;28;20438;-42
2023/03/15 08:30:22;;;;;;;4.00;1.70;;;10.70;45.20;;;;;;5052202;28;20941;-43
2023/03/15 08:32:50;;;;;;;4.30;2.50;;;10.60;45.80;;;;;;5052326;28;20208;-43
2023/03/15 08:35:18;;;;;;;3.67;1.70;;;10.70;46.10;;;;;;5051603;28;20534;-44
2023/03/15 08:37:46;;;;;;;2.87;1.93;;;10.90;45.60;;;;;;5052454;28;21032;-46
2023/03/15 08:40:14;;;;;;;2.63;1.80;;;10.90;45.20;;;;;;5052455;28;20461;-42
2023/03/15 08:42:40;;;;;;;3.30;1.50;;;10.60;44.90;;;;;;5052110;28;20797;-42
2023/03/15 08:45:07;;;;;;;5.60;1.77;;;10.60;45.90;;;;;;5052673;28;20419;-42
2023/03/15 08:47:34;;;;;;;7.00;2.10;;;10.70;45.80;;;;;;5052679;28;20192;-45
2023/03/15 08:50:04;;;;;;;4.50;2.10;;;10.50;44.80;;;;;;5052602;28;20439;-43
2023/03/15 08:52:30;;;;;;;4.30;2.03;;;10.60;45.10;;;;;;5051874;28;20525;-42
2023/03/15 08:54:56;;;;;;;4.13;2.00;;;10.40;44.50;;;;;;5050380;28;20463;-44
2023/03/15 08:57:26;;;;;;;3.17;1.60;;;10.30;44.70;;;;;;5052347;28;20781;-43
2023/03/15 08:59:52;;;;;;;4.77;1.80;;;10.20;44.70;;;;;;5052083;28;20450;-42
2023/03/15 09:02:18;;;;;;;2.20;1.70;;;10.40;45.40;;;;;;5051930;28;20435;-42
2023/03/15 09:04:43;;;;;;;5.20;1.33;;;10.50;45.10;;;;;;5052213;28;20422;-42
2023/03/15 09:07:11;;;;;;;2.70;1.90;;;10.50;44.70;;;;;;5052260;28;20247;-42
2023/03/15 09:09:37;;;;;;;4.90;1.53;;;10.60;45.30;;;;;;5051803;28;20204;-42
2023/03/15 09:12:03;;;;;;;2.60;1.70;;;10.40;45.00;;;;;;5051592;28;20515;-41
2023/03/15 09:14:28;;;;;;;3.80;1.67;;;10.40;45.70;;;;;;5052135;28;20431;-42
2023/03/15 09:16:54;;;;;;;3.60;1.90;;;10.70;45.90;;;;;;5051819;28;20189;-42
2023/03/15 09:19:20;;;;;;;7.83;2.00;;;10.90;45.60;;;;;;5051727;28;20232;-42
2023/03/15 09:21:46;;;;;;;5.90;1.90;;;10.70;44.70;;;;;;5050113;28;20192;-42
2023/03/15 09:24:11;;;;;;;7.30;2.27;;;10.40;43.90;;;;;;5051852;28;20232;-42
2023/03/15 09:26:37;;;;;;;7.93;2.17;;;10.50;43.90;;;;;;5051864;28;20291;-43
2023/03/15 09:29:03;;;;;;;4.17;1.70;;;10.40;44.30;;;;;;5051715;28;20323;-43
2023/03/15 09:31:30;;;;;;;6.60;1.80;;;10.50;44.60;;;;;;5051761;28;20199;-42
2023/03/15 09:33:56;;;;;;;4.77;1.70;;;10.40;43.90;;;;;;5051210;28;20196;-42
2023/03/15 09:36:21;;;;;;;3.20;1.67;;;10.60;44.40;;;;;;5051737;28;20423;-42
2023/03/15 09:38:47;;;;;;;3.57;1.97;;;10.20;43.80;;;;;;5051566;28;20286;-43
2023/03/15 09:41:33;;;;;;;4.47;2.00;;;10.40;44.50;;;;;;5051419;28;20193;-44
2023/03/15 09:44:17;;;;;;;4.23;2.20;;;10.80;44.10;;;;;;5051102;28;20188;-42
2023/03/15 09:47:15;;;;;;;5.07;1.40;;;10.90;43.60;;;;;;5051122;28;20439;-46
2023/03/15 09:49:53;;;;;;;6.90;1.80;;;10.90;42.20;;;;;;5049146;28;20478;-43
2023/03/15 09:52:42;;;;;;;4.23;1.70;;;10.70;40.40;;;;;;5050800;28;20948;-42
2023/03/15 09:55:21;;;;;;;3.90;2.03;;;10.70;40.80;;;;;;5051220;28;20532;-42
2023/03/15 09:57:54;;;;;;;3.50;1.53;;;10.50;42.00;;;;;;5050796;28;20819;-44
2023/03/15 10:00:25;;;;;;;2.57;1.50;;;10.70;42.00;;;;;;5050839;28;20568;-44
2023/03/15 10:03:00;;;;;;;5.60;2.07;;;10.70;41.70;;;;;;5050422;28;20480;-45
2023/03/15 10:05:37;;;;;;;1.67;1.50;;;10.80;42.30;;;;;;5050981;28;20426;-46
2023/03/15 10:08:13;;;;;;;2.43;1.27;;;10.90;41.70;;;;;;5050664;28;20433;-42
2023/03/15 10:11:01;;;;;;;5.73;1.60;;;11.00;42.20;;;;;;5050793;28;20427;-46
2023/03/15 10:13:43;;;;;;;5.93;1.63;;;10.90;41.80;;;;;;5050444;28;20572;-42
2023/03/15 10:16:18;;;;;;;2.70;1.40;;;10.90;41.90;;;;;;5049159;28;20431;-43
2023/03/15 10:19:13;;;;;;;4.10;2.00;;;11.00;42.40;;;;;;5050612;28;21021;-43
2023/03/15 10:21:53;;;;;;;5.33;1.60;;;10.90;41.90;;;;;;5050436;28;20471;-43
2023/03/15 10:24:35;;;;;;;5.80;1.50;;;11.00;41.40;;;;;;5050731;28;20431;-44
2023/03/15 10:27:14;;;;;;;7.20;2.20;;;11.10;41.90;;;;;;5050553;28;20433;-43
2023/03/15 10:29:39;;;;;;;2.90;1.43;;;11.10;41.50;;;;;;5050484;28;20953;-43
2023/03/15 10:32:13;;;;;;;2.80;1.60;;;11.10;41.90;;;;;;5050094;28;20427;-43
2023/03/15 10:34:38;;;;;;;1.20;1.10;;;10.80;39.50;;;;;;5050883;28;20204;-42
2023/03/15 10:37:05;;;;;;;10.20;2.00;;;11.00;40.40;;;;;;5050502;28;20431;-43
2023/03/15 10:39:30;;;;;;;4.10;1.40;;;11.20;40.00;;;;;;5050349;28;20306;-44
2023/03/15 10:41:56;;;;;;;2.97;1.30;;;11.20;39.70;;;;;;5048660;28;20506;-46
2023/03/15 10:44:25;;;;;;;3.50;1.87;;;11.20;39.30;;;;;;5050472;28;20690;-43
2023/03/15 10:46:59;;;;;;;4.40;1.60;;;11.10;40.20;;;;;;5050339;28;20217;-44
2023/03/15 10:49:35;;;;;;;5.57;1.53;;;11.20;40.70;;;;;;5050423;28;20427;-46
2023/03/15 10:52:01;;;;;;;4.57;1.57;;;11.10;41.40;;;;;;5050316;28;20895;-43
2023/03/15 10:54:27;;;;;;;3.20;2.03;;;11.40;41.50;;;;;;5050143;28;20470;-43
2023/03/15 10:57:17;;;;;;;2.40;1.50;;;11.60;41.50;;;;;;5050338;28;20207;-46
2023/03/15 11:00:05;;;;;;;2.93;1.43;;;12.00;41.00;;;;;;5053908;28;20494;-44
2023/03/15 11:02:32;;;;;;;5.60;1.87;;;12.30;40.30;;;;;;5053693;28;20541;-44
2023/03/15 11:05:08;;;;;;;1.80;1.30;;;12.40;40.30;;;;;;5054350;28;20435;-42
2023/03/15 11:07:35;;;;;;;2.43;1.23;;;12.40;40.40;;;;;;5054044;28;20438;-46
2023/03/15 11:10:03;;;;;;;6.40;1.90;;;12.60;40.40;;;;;;5052768;28;20476;-43
2023/03/15 11:12:32;;;;;;;3.53;1.67;;;12.60;40.50;;;;;;5053847;28;20446;-44
2023/03/15 11:15:26;;;;;;;3.63;1.37;;;12.70;40.90;;;;;;5054002;28;21051;-43
2023/03/15 11:17:51;;;;;;;2.60;1.63;;;12.60;39.60;;;;;;5049996;28;20533;-44
2023/03/15 11:20:37;;;;;;;2.50;1.20;;;12.60;39.70;;;;;;5053835;28;20471;-43
2023/03/15 11:23:22;;;;;;;2.57;1.80;;;12.60;39.70;;;;;;5053606;28;20184;-46
2023/03/15 11:25:48;;;;;;;4.50;1.70;;;12.50;39.10;;;;;;5053883;28;20434;-46
2023/03/15 11:28:20;;;;;;;4.90;1.50;;;12.50;39.60;;;;;;5054064;28;20431;-45
2023/03/15 11:30:47;;;;;;;5.00;1.50;;;12.50;39.00;;;;;;5053839;28;20479;-46
2023/03/15 11:33:32;;;;;;;5.23;1.67;;;12.50;39.30;;;;;;5053409;28;20499;-44
2023/03/15 11:36:00;;;;;;;1.90;1.30;;;12.60;39.30;;;;;;5052304;28;20442;-44
2023/03/15 11:38:42;;;;;;;2.83;1.17;;;12.40;39.50;;;;;;5053575;28;21201;-43
2023/03/15 11:41:26;;;;;;;4.23;1.20;;;12.30;40.00;;;;;;5053687;28;20790;-43
2023/03/15 11:44:02;;;;;;;1.43;1.17;;;12.40;40.00;;;;;;5053192;28;20522;-44
2023/03/15 11:46:36;;;;;;;3.87;1.23;;;12.40;40.70;;;;;;5053489;28;20446;-45
2023/03/15 11:49:11;;;;;;;1.67;1.17;;;12.20;41.90;;;;;;5053644;28;20814;-46
2023/03/15 11:51:36;;;;;;;2.10;1.40;;;12.40;42.00;;;;;;5053248;28;20469;-44
2023/03/15 11:54:11;;;;;;;3.20;1.40;;;12.30;41.50;;;;;;5053044;28;20970;-45
2023/03/15 11:56:45;;;;;;;6.73;1.37;;;12.40;41.60;;;;;;5052611;28;20264;-44
2023/03/15 11:59:14;;;;;;;3.40;1.20;;;12.60;41.40;;;;;;5053012;28;20513;-44
2023/03/15 12:01:49;;;;;;;2.93;1.43;;;12.60;41.40;;;;;;5051590;28;20540;-43
2023/03/15 12:04:24;;;;;;;4.30;1.83;;;12.70;40.40;;;;;;5053240;28;20433;-43
2023/03/15 12:06:57;;;;;;;4.60;1.87;;;12.70;40.20;;;;;;5053140;28;21263;-43
2023/03/15 12:09:31;;;;;;;2.90;1.30;;;12.70;39.80;;;;;;5051889;28;20455;-44
2023/03/15 12:11:59;;;;;;;1.60;0.87;;;12.70;39.70;;;;;;5052795;28;20430;-44
2023/03/15 12:14:31;;;;;;;1.77;1.37;;;12.80;40.00;;;;;;5052939;28;20446;-45
2023/03/15 12:17:22;;;;;;;3.67;1.30;;;12.80;39.70;;;;;;5052975;28;20478;-44
2023/03/15 12:20:16;;;;;;;3.37;1.30;;;12.80;38.90;;;;;;5052813;28;20483;-48
2023/03/15 12:22:53;;;;;;;2.47;1.10;;;12.80;39.30;;;;;;5038247;28;20450;-47
2023/03/15 12:25:36;;;;;;;5.47;1.20;;;12.70;39.10;;;;;;5053078;28;20419;-43
2023/03/15 12:28:09;;;;;;;1.30;1.10;;;12.40;39.70;;;;;;5051919;28;20442;-43
2023/03/15 12:30:40;;;;;;;1.93;1.10;;;12.40;40.30;;;;;;5052672;28;20815;-45
2023/03/15 12:33:15;;;;;;;2.70;1.40;;;12.10;40.90;;;;;;5052382;28;20450;-45
2023/03/15 12:35:41;;;;;;;1.40;1.17;;;12.00;41.20;;;;;;5052579;28;20445;-45
2023/03/15 12:38:22;;;;;;;2.57;1.20;;;11.90;41.80;;;;;;5052473;28;20486;-43
2023/03/15 12:40:54;;;;;;;2.73;1.03;;;12.00;42.20;;;;;;5052673;28;20470;-47
2023/03/15 12:43:44;;;;;;;3.80;1.20;;;12.20;42.40;;;;;;5052082;28;20439;-43
2023/03/15 12:46:35;;;;;;;3.23;1.33;;;12.30;42.30;;;;;;5052407;28;20431;-44
2023/03/15 12:49:24;;;;;;;6.77;2.50;;;12.30;43.50;;;;;;5052399;28;20438;-43
2023/03/15 12:51:54;;;;;;;3.00;1.67;;;12.30;46.60;;;;;;5052049;28;20427;-44
2023/03/15 12:54:23;;;;;;;4.40;2.20;;;12.10;47.80;;;;;;5052024;28;20474;-43
2023/03/15 12:56:54;;;;;;;3.30;2.70;;;11.70;48.90;;;;;;5050914;28;20450;-43